sensor_id;sensor_type;location;lat;lon;timestamp;temperature;humidity
39019;DHT22;24786;51.984;5.872;2022-12-08T00:01:34;3.80;99.90
39019;DHT22;24786;51.984;5.872;2022-12-08T00:04:00;3.90;99.90
39019;DHT22;24786;51.984;5.872;2022-12-08T00:06:38;3.80;99.90
39019;DHT22;24786;51.984;5.872;2022-12-08T00:11:57;3.80;99.90
39019;DHT22;24786;51.984;5.872;2022-12-08T00:14:38;3.90;99.90
39019;DHT22;24786;51.984;5.872;2022-12-08T00:17:06;3.90;99.90
39019;DHT22;24786;51.984;5.872;2022-12-08T00:19:32;3.90;99.90
39019;DHT22;24786;51.984;5.872;2022-12-08T00:21:58;3.90;99.90
39019;DHT22;24786;51.984;5.872;2022-12-08T00:24:28;3.90;99.90
39019;DHT22;24786;51.984;5.872;2022-12-08T00:26:54;3.90;99.90
39019;DHT22;24786;51.984;5.872;2022-12-08T00:29:19;3.80;99.90
39019;DHT22;24786;51.984;5.872;2022-12-08T00:31:45;3.80;99.90
39019;DHT22;24786;51.984;5.872;2022-12-08T00:34:12;3.80;99.90
39019;DHT22;24786;51.984;5.872;2022-12-08T00:36:38;3.90;99.90
39019;DHT22;24786;51.984;5.872;2022-12-08T00:39:03;3.80;99.90
39019;DHT22;24786;51.984;5.872;2022-12-08T00:41:29;3.80;99.90
39019;DHT22;24786;51.984;5.872;2022-12-08T00:44:15;3.90;99.90
39019;DHT22;24786;51.984;5.872;2022-12-08T00:46:41;3.90;99.90
39019;DHT22;24786;51.984;5.872;2022-12-08T00:49:07;3.90;99.90
39019;DHT22;24786;51.984;5.872;2022-12-08T00:51:33;4.00;99.90
39019;DHT22;24786;51.984;5.872;2022-12-08T00:53:58;4.10;99.90
39019;DHT22;24786;51.984;5.872;2022-12-08T00:56:25;4.00;99.90
39019;DHT22;24786;51.984;5.872;2022-12-08T00:58:51;4.00;99.90
39019;DHT22;24786;51.984;5.872;2022-12-08T01:01:16;4.00;99.90
39019;DHT22;24786;51.984;5.872;2022-12-08T01:03:42;4.00;99.90
39019;DHT22;24786;51.984;5.872;2022-12-08T01:06:08;4.00;99.90
39019;DHT22;24786;51.984;5.872;2022-12-08T01:08:37;4.10;99.90
39019;DHT22;24786;51.984;5.872;2022-12-08T01:11:08;4.10;99.90
39019;DHT22;24786;51.984;5.872;2022-12-08T01:13:34;4.20;99.90
39019;DHT22;24786;51.984;5.872;2022-12-08T01:16:00;4.20;99.90
39019;DHT22;24786;51.984;5.872;2022-12-08T01:18:26;4.20;99.90
39019;DHT22;24786;51.984;5.872;2022-12-08T01:20:52;4.20;99.90
39019;DHT22;24786;51.984;5.872;2022-12-08T01:23:18;4.20;99.90
39019;DHT22;24786;51.984;5.872;2022-12-08T01:25:44;4.20;99.90
39019;DHT22;24786;51.984;5.872;2022-12-08T01:28:09;4.20;99.90
39019;DHT22;24786;51.984;5.872;2022-12-08T01:30:37;4.20;99.90
39019;DHT22;24786;51.984;5.872;2022-12-08T01:33:03;4.20;99.90
39019;DHT22;24786;51.984;5.872;2022-12-08T01:35:28;4.30;99.90
39019;DHT22;24786;51.984;5.872;2022-12-08T01:37:54;4.30;99.90
39019;DHT22;24786;51.984;5.872;2022-12-08T01:40:19;4.30;99.90
39019;DHT22;24786;51.984;5.872;2022-12-08T01:42:45;4.30;99.90
39019;DHT22;24786;51.984;5.872;2022-12-08T01:45:28;4.30;99.90
39019;DHT22;24786;51.984;5.872;2022-12-08T01:47:59;4.40;99.90
39019;DHT22;24786;51.984;5.872;2022-12-08T01:50:28;4.30;99.90
39019;DHT22;24786;51.984;5.872;2022-12-08T01:52:58;4.30;99.90
39019;DHT22;24786;51.984;5.872;2022-12-08T01:55:31;4.30;99.90
39019;DHT22;24786;51.984;5.872;2022-12-08T01:58:11;4.40;99.90
39019;DHT22;24786;51.984;5.872;2022-12-08T02:00:37;4.30;99.90
39019;DHT22;24786;51.984;5.872;2022-12-08T02:03:06;4.40;99.90
39019;DHT22;24786;51.984;5.872;2022-12-08T02:05:36;4.40;99.90
39019;DHT22;24786;51.984;5.872;2022-12-08T02:08:04;4.30;99.90
39019;DHT22;24786;51.984;5.872;2022-12-08T02:10:34;4.30;99.90
39019;DHT22;24786;51.984;5.872;2022-12-08T02:13:02;4.30;99.90
39019;DHT22;24786;51.984;5.872;2022-12-08T02:28:58;4.30;99.90
39019;DHT22;24786;51.984;5.872;2022-12-08T02:34:25;4.30;99.90
39019;DHT22;24786;51.984;5.872;2022-12-08T02:43:07;4.30;99.90
39019;DHT22;24786;51.984;5.872;2022-12-08T02:45:40;4.20;99.90
39019;DHT22;24786;51.984;5.872;2022-12-08T02:48:09;4.30;99.90
39019;DHT22;24786;51.984;5.872;2022-12-08T02:50:35;4.30;99.90
39019;DHT22;24786;51.984;5.872;2022-12-08T02:53:01;4.40;99.90
39019;DHT22;24786;51.984;5.872;2022-12-08T02:58:33;4.30;99.90
39019;DHT22;24786;51.984;5.872;2022-12-08T03:06:27;4.30;99.90
39019;DHT22;24786;51.984;5.872;2022-12-08T03:08:58;4.30;99.90
39019;DHT22;24786;51.984;5.872;2022-12-08T03:11:38;4.30;99.90
39019;DHT22;24786;51.984;5.872;2022-12-08T03:14:09;4.30;99.90
39019;DHT22;24786;51.984;5.872;2022-12-08T03:16:37;4.30;99.90
39019;DHT22;24786;51.984;5.872;2022-12-08T03:19:15;4.40;99.90
39019;DHT22;24786;51.984;5.872;2022-12-08T03:21:43;4.40;99.90
39019;DHT22;24786;51.984;5.872;2022-12-08T03:24:12;4.40;99.90
39019;DHT22;24786;51.984;5.872;2022-12-08T03:26:47;4.40;99.90
39019;DHT22;24786;51.984;5.872;2022-12-08T03:29:15;4.40;99.90
39019;DHT22;24786;51.984;5.872;2022-12-08T03:31:46;4.30;99.90
39019;DHT22;24786;51.984;5.872;2022-12-08T03:34:14;4.40;99.90
39019;DHT22;24786;51.984;5.872;2022-12-08T03:36:41;4.40;99.90
39019;DHT22;24786;51.984;5.872;2022-12-08T03:39:07;4.40;99.90
39019;DHT22;24786;51.984;5.872;2022-12-08T03:41:33;4.30;99.90
39019;DHT22;24786;51.984;5.872;2022-12-08T03:43:58;4.40;99.90
39019;DHT22;24786;51.984;5.872;2022-12-08T03:46:26;4.30;99.90
39019;DHT22;24786;51.984;5.872;2022-12-08T03:48:52;4.30;99.90
39019;DHT22;24786;51.984;5.872;2022-12-08T03:51:17;4.30;99.90
39019;DHT22;24786;51.984;5.872;2022-12-08T03:53:44;4.30;99.90
39019;DHT22;24786;51.984;5.872;2022-12-08T03:56:25;4.30;99.90
39019;DHT22;24786;51.984;5.872;2022-12-08T03:58:52;4.40;99.90
39019;DHT22;24786;51.984;5.872;2022-12-08T04:01:18;4.30;99.90
39019;DHT22;24786;51.984;5.872;2022-12-08T04:03:43;4.30;99.90
39019;DHT22;24786;51.984;5.872;2022-12-08T04:06:09;4.30;99.90
39019;DHT22;24786;51.984;5.872;2022-12-08T04:08:35;4.30;99.90
39019;DHT22;24786;51.984;5.872;2022-12-08T04:11:00;4.30;99.90
39019;DHT22;24786;51.984;5.872;2022-12-08T04:13:27;4.20;99.90
39019;DHT22;24786;51.984;5.872;2022-12-08T04:15:52;4.20;99.90
39019;DHT22;24786;51.984;5.872;2022-12-08T04:18:18;4.20;99.90
39019;DHT22;24786;51.984;5.872;2022-12-08T04:20:44;4.20;99.90
39019;DHT22;24786;51.984;5.872;2022-12-08T04:23:10;4.20;99.90
39019;DHT22;24786;51.984;5.872;2022-12-08T04:25:36;4.20;99.90
39019;DHT22;24786;51.984;5.872;2022-12-08T04:28:03;4.20;99.90
39019;DHT22;24786;51.984;5.872;2022-12-08T04:30:29;4.20;99.90
39019;DHT22;24786;51.984;5.872;2022-12-08T04:32:54;4.10;99.90
39019;DHT22;24786;51.984;5.872;2022-12-08T04:35:20;4.10;99.90
39019;DHT22;24786;51.984;5.872;2022-12-08T04:37:46;4.10;99.90
39019;DHT22;24786;51.984;5.872;2022-12-08T04:40:12;4.10;99.90
39019;DHT22;24786;51.984;5.872;2022-12-08T04:42:38;4.10;99.90
39019;DHT22;24786;51.984;5.872;2022-12-08T04:45:04;4.10;99.90
39019;DHT22;24786;51.984;5.872;2022-12-08T04:47:30;4.10;99.90
39019;DHT22;24786;51.984;5.872;2022-12-08T04:49:56;4.10;99.90
39019;DHT22;24786;51.984;5.872;2022-12-08T04:52:22;4.10;99.90
39019;DHT22;24786;51.984;5.872;2022-12-08T04:54:47;4.00;99.90
39019;DHT22;24786;51.984;5.872;2022-12-08T04:57:13;4.00;99.90
39019;DHT22;24786;51.984;5.872;2022-12-08T04:59:39;4.10;99.90
39019;DHT22;24786;51.984;5.872;2022-12-08T05:02:04;4.20;99.90
39019;DHT22;24786;51.984;5.872;2022-12-08T05:04:31;4.10;99.90
39019;DHT22;24786;51.984;5.872;2022-12-08T05:06:57;4.10;99.90
39019;DHT22;24786;51.984;5.872;2022-12-08T05:09:22;4.10;99.90
39019;DHT22;24786;51.984;5.872;2022-12-08T05:11:48;4.20;99.90
39019;DHT22;24786;51.984;5.872;2022-12-08T05:14:15;4.20;99.90
39019;DHT22;24786;51.984;5.872;2022-12-08T05:16:41;4.20;99.90
39019;DHT22;24786;51.984;5.872;2022-12-08T05:19:07;4.20;99.90
39019;DHT22;24786;51.984;5.872;2022-12-08T05:21:33;4.20;99.90
39019;DHT22;24786;51.984;5.872;2022-12-08T05:23:58;4.20;99.90
39019;DHT22;24786;51.984;5.872;2022-12-08T05:26:24;4.10;99.90
39019;DHT22;24786;51.984;5.872;2022-12-08T05:28:50;4.20;99.90
39019;DHT22;24786;51.984;5.872;2022-12-08T05:31:16;4.10;99.90
39019;DHT22;24786;51.984;5.872;2022-12-08T05:33:43;4.10;99.90
39019;DHT22;24786;51.984;5.872;2022-12-08T05:36:11;4.20;99.90
39019;DHT22;24786;51.984;5.872;2022-12-08T05:38:37;4.10;99.90
39019;DHT22;24786;51.984;5.872;2022-12-08T05:41:04;4.10;99.90
39019;DHT22;24786;51.984;5.872;2022-12-08T05:43:29;4.10;99.90
39019;DHT22;24786;51.984;5.872;2022-12-08T05:45:55;4.10;99.90
39019;DHT22;24786;51.984;5.872;2022-12-08T05:48:21;4.10;99.90
39019;DHT22;24786;51.984;5.872;2022-12-08T05:50:47;4.10;99.90
39019;DHT22;24786;51.984;5.872;2022-12-08T05:53:13;4.00;99.90
39019;DHT22;24786;51.984;5.872;2022-12-08T05:55:39;4.00;99.90
39019;DHT22;24786;51.984;5.872;2022-12-08T05:58:06;4.00;99.90
39019;DHT22;24786;51.984;5.872;2022-12-08T06:00:33;4.00;99.90
39019;DHT22;24786;51.984;5.872;2022-12-08T06:02:59;4.00;99.90
39019;DHT22;24786;51.984;5.872;2022-12-08T06:05:25;4.00;99.90
39019;DHT22;24786;51.984;5.872;2022-12-08T06:07:51;4.00;99.90
39019;DHT22;24786;51.984;5.872;2022-12-08T06:10:17;3.90;99.90
39019;DHT22;24786;51.984;5.872;2022-12-08T06:12:42;3.90;99.90
39019;DHT22;24786;51.984;5.872;2022-12-08T06:15:08;3.90;99.90
39019;DHT22;24786;51.984;5.872;2022-12-08T06:17:34;3.90;99.90
39019;DHT22;24786;51.984;5.872;2022-12-08T06:20:00;3.90;99.90
39019;DHT22;24786;51.984;5.872;2022-12-08T06:22:25;3.80;99.90
39019;DHT22;24786;51.984;5.872;2022-12-08T06:24:51;3.80;99.90
39019;DHT22;24786;51.984;5.872;2022-12-08T06:27:17;3.80;99.90
39019;DHT22;24786;51.984;5.872;2022-12-08T06:29:42;3.80;99.90
39019;DHT22;24786;51.984;5.872;2022-12-08T06:32:10;3.70;99.90
39019;DHT22;24786;51.984;5.872;2022-12-08T06:34:36;3.70;99.90
39019;DHT22;24786;51.984;5.872;2022-12-08T06:37:02;3.80;99.90
39019;DHT22;24786;51.984;5.872;2022-12-08T06:39:28;3.70;99.90
39019;DHT22;24786;51.984;5.872;2022-12-08T06:41:54;3.70;99.90
39019;DHT22;24786;51.984;5.872;2022-12-08T06:44:38;3.70;99.90
39019;DHT22;24786;51.984;5.872;2022-12-08T06:47:04;3.70;99.90
39019;DHT22;24786;51.984;5.872;2022-12-08T06:49:29;3.70;99.90
39019;DHT22;24786;51.984;5.872;2022-12-08T06:51:55;3.70;99.90
39019;DHT22;24786;51.984;5.872;2022-12-08T06:54:21;3.70;99.90
39019;DHT22;24786;51.984;5.872;2022-12-08T06:56:46;3.70;99.90
39019;DHT22;24786;51.984;5.872;2022-12-08T06:59:12;3.70;99.90
39019;DHT22;24786;51.984;5.872;2022-12-08T07:01:37;3.70;99.90
39019;DHT22;24786;51.984;5.872;2022-12-08T07:04:03;3.70;99.90
39019;DHT22;24786;51.984;5.872;2022-12-08T07:06:29;3.70;99.90
39019;DHT22;24786;51.984;5.872;2022-12-08T07:08:54;3.70;99.90
39019;DHT22;24786;51.984;5.872;2022-12-08T07:11:20;3.70;99.90
39019;DHT22;24786;51.984;5.872;2022-12-08T07:13:46;3.90;99.90
39019;DHT22;24786;51.984;5.872;2022-12-08T07:16:11;3.70;99.90
39019;DHT22;24786;51.984;5.872;2022-12-08T07:18:37;3.70;99.90
39019;DHT22;24786;51.984;5.872;2022-12-08T07:21:04;3.70;99.90
39019;DHT22;24786;51.984;5.872;2022-12-08T07:23:31;3.70;99.90
39019;DHT22;24786;51.984;5.872;2022-12-08T07:26:00;3.70;99.90
39019;DHT22;24786;51.984;5.872;2022-12-08T07:28:28;3.70;99.90
39019;DHT22;24786;51.984;5.872;2022-12-08T07:30:53;3.70;99.90
39019;DHT22;24786;51.984;5.872;2022-12-08T07:33:19;3.70;99.90
39019;DHT22;24786;51.984;5.872;2022-12-08T07:35:53;3.70;99.90
39019;DHT22;24786;51.984;5.872;2022-12-08T07:38:19;3.70;99.90
39019;DHT22;24786;51.984;5.872;2022-12-08T07:40:44;3.70;99.90
39019;DHT22;24786;51.984;5.872;2022-12-08T07:43:10;3.70;99.90
39019;DHT22;24786;51.984;5.872;2022-12-08T07:45:35;3.70;99.90
39019;DHT22;24786;51.984;5.872;2022-12-08T07:48:01;3.70;99.90
39019;DHT22;24786;51.984;5.872;2022-12-08T07:50:26;3.70;99.90
39019;DHT22;24786;51.984;5.872;2022-12-08T07:52:52;3.70;99.90
39019;DHT22;24786;51.984;5.872;2022-12-08T07:55:17;3.80;99.90
39019;DHT22;24786;51.984;5.872;2022-12-08T07:57:43;3.80;99.90
39019;DHT22;24786;51.984;5.872;2022-12-08T08:00:17;3.70;99.90
39019;DHT22;24786;51.984;5.872;2022-12-08T08:02:42;3.70;99.90
39019;DHT22;24786;51.984;5.872;2022-12-08T08:05:08;3.70;99.90
39019;DHT22;24786;51.984;5.872;2022-12-08T08:07:34;3.70;99.90
39019;DHT22;24786;51.984;5.872;2022-12-08T08:10:01;3.70;99.90
39019;DHT22;24786;51.984;5.872;2022-12-08T08:12:27;3.70;99.90
39019;DHT22;24786;51.984;5.872;2022-12-08T08:14:52;3.80;99.90
39019;DHT22;24786;51.984;5.872;2022-12-08T08:17:18;3.70;99.90
39019;DHT22;24786;51.984;5.872;2022-12-08T08:19:45;3.80;99.90
39019;DHT22;24786;51.984;5.872;2022-12-08T08:22:10;3.80;99.90
39019;DHT22;24786;51.984;5.872;2022-12-08T08:24:36;3.80;99.90
39019;DHT22;24786;51.984;5.872;2022-12-08T08:27:03;3.70;99.90
39019;DHT22;24786;51.984;5.872;2022-12-08T08:29:28;3.80;99.90
39019;DHT22;24786;51.984;5.872;2022-12-08T08:31:54;3.70;99.90
39019;DHT22;24786;51.984;5.872;2022-12-08T08:34:19;3.90;99.90
39019;DHT22;24786;51.984;5.872;2022-12-08T08:36:45;3.80;99.90
39019;DHT22;24786;51.984;5.872;2022-12-08T08:39:12;3.80;99.90
39019;DHT22;24786;51.984;5.872;2022-12-08T08:41:38;3.80;99.90
39019;DHT22;24786;51.984;5.872;2022-12-08T08:44:05;3.90;99.90
39019;DHT22;24786;51.984;5.872;2022-12-08T08:46:30;3.80;99.90
39019;DHT22;24786;51.984;5.872;2022-12-08T08:48:56;4.00;99.90
39019;DHT22;24786;51.984;5.872;2022-12-08T08:51:22;3.90;99.90
39019;DHT22;24786;51.984;5.872;2022-12-08T08:53:48;3.90;99.90
39019;DHT22;24786;51.984;5.872;2022-12-08T08:56:15;3.80;99.90
39019;DHT22;24786;51.984;5.872;2022-12-08T08:58:43;3.80;99.90
39019;DHT22;24786;51.984;5.872;2022-12-08T09:01:15;3.80;99.90
39019;DHT22;24786;51.984;5.872;2022-12-08T09:03:40;3.80;99.90
39019;DHT22;24786;51.984;5.872;2022-12-08T09:06:06;3.80;99.90
39019;DHT22;24786;51.984;5.872;2022-12-08T09:08:32;3.80;99.90
39019;DHT22;24786;51.984;5.872;2022-12-08T09:10:57;3.80;99.90
39019;DHT22;24786;51.984;5.872;2022-12-08T09:13:23;3.90;99.90
39019;DHT22;24786;51.984;5.872;2022-12-08T09:15:48;3.80;99.90
39019;DHT22;24786;51.984;5.872;2022-12-08T09:18:14;3.80;99.90
39019;DHT22;24786;51.984;5.872;2022-12-08T09:20:40;3.80;99.90
39019;DHT22;24786;51.984;5.872;2022-12-08T09:23:05;3.80;99.90
39019;DHT22;24786;51.984;5.872;2022-12-08T09:25:31;3.90;99.90
39019;DHT22;24786;51.984;5.872;2022-12-08T09:27:57;4.00;99.90
39019;DHT22;24786;51.984;5.872;2022-12-08T09:30:22;3.90;99.90
39019;DHT22;24786;51.984;5.872;2022-12-08T09:32:48;3.90;99.90
39019;DHT22;24786;51.984;5.872;2022-12-08T09:35:13;3.90;99.90
39019;DHT22;24786;51.984;5.872;2022-12-08T09:37:39;3.90;99.90
39019;DHT22;24786;51.984;5.872;2022-12-08T09:40:06;3.90;99.90
39019;DHT22;24786;51.984;5.872;2022-12-08T09:42:48;3.90;99.90
39019;DHT22;24786;51.984;5.872;2022-12-08T09:45:15;3.90;99.90
39019;DHT22;24786;51.984;5.872;2022-12-08T09:47:46;3.90;99.90
39019;DHT22;24786;51.984;5.872;2022-12-08T09:53:03;4.00;99.90
39019;DHT22;24786;51.984;5.872;2022-12-08T09:55:58;4.00;99.90
39019;DHT22;24786;51.984;5.872;2022-12-08T09:58:44;4.00;99.90
39019;DHT22;24786;51.984;5.872;2022-12-08T10:01:13;4.00;99.90
39019;DHT22;24786;51.984;5.872;2022-12-08T10:03:39;4.00;99.90
39019;DHT22;24786;51.984;5.872;2022-12-08T10:11:58;4.10;99.90
39019;DHT22;24786;51.984;5.872;2022-12-08T10:16:58;4.00;99.90
39019;DHT22;24786;51.984;5.872;2022-12-08T10:19:26;4.00;99.90
39019;DHT22;24786;51.984;5.872;2022-12-08T10:21:52;4.00;99.90
39019;DHT22;24786;51.984;5.872;2022-12-08T10:24:31;4.00;99.90
39019;DHT22;24786;51.984;5.872;2022-12-08T10:26:59;4.00;99.90
39019;DHT22;24786;51.984;5.872;2022-12-08T10:29:25;4.00;99.90
39019;DHT22;24786;51.984;5.872;2022-12-08T10:31:51;4.00;99.90
39019;DHT22;24786;51.984;5.872;2022-12-08T10:34:19;4.10;99.90
39019;DHT22;24786;51.984;5.872;2022-12-08T10:36:47;4.10;99.90
39019;DHT22;24786;51.984;5.872;2022-12-08T10:39:34;4.10;99.90
39019;DHT22;24786;51.984;5.872;2022-12-08T10:42:08;4.10;99.90
39019;DHT22;24786;51.984;5.872;2022-12-08T10:44:54;4.10;99.90
39019;DHT22;24786;51.984;5.872;2022-12-08T10:47:24;4.10;99.90
39019;DHT22;24786;51.984;5.872;2022-12-08T10:52:31;4.10;99.90
39019;DHT22;24786;51.984;5.872;2022-12-08T10:55:01;4.10;99.90
39019;DHT22;24786;51.984;5.872;2022-12-08T10:57:27;4.10;99.90
39019;DHT22;24786;51.984;5.872;2022-12-08T10:59:56;4.20;99.90
39019;DHT22;24786;51.984;5.872;2022-12-08T11:02:22;4.20;99.90
39019;DHT22;24786;51.984;5.872;2022-12-08T11:04:55;4.20;99.90
39019;DHT22;24786;51.984;5.872;2022-12-08T11:07:23;4.20;99.90
39019;DHT22;24786;51.984;5.872;2022-12-08T11:09:54;4.20;99.90
39019;DHT22;24786;51.984;5.872;2022-12-08T11:12:22;4.20;99.90
39019;DHT22;24786;51.984;5.872;2022-12-08T11:14:57;4.20;99.90
39019;DHT22;24786;51.984;5.872;2022-12-08T11:17:27;4.20;99.90
39019;DHT22;24786;51.984;5.872;2022-12-08T11:19:55;4.20;99.90
39019;DHT22;24786;51.984;5.872;2022-12-08T11:22:41;4.20;99.90
39019;DHT22;24786;51.984;5.872;2022-12-08T11:27:34;4.30;99.90
39019;DHT22;24786;51.984;5.872;2022-12-08T11:30:02;4.30;99.90
39019;DHT22;24786;51.984;5.872;2022-12-08T11:32:28;4.30;99.90
39019;DHT22;24786;51.984;5.872;2022-12-08T11:34:55;4.30;99.90
39019;DHT22;24786;51.984;5.872;2022-12-08T11:37:42;4.30;99.90
39019;DHT22;24786;51.984;5.872;2022-12-08T11:40:21;4.30;99.90
39019;DHT22;24786;51.984;5.872;2022-12-08T11:45:23;4.30;99.90
39019;DHT22;24786;51.984;5.872;2022-12-08T11:48:09;4.30;99.90
39019;DHT22;24786;51.984;5.872;2022-12-08T11:50:47;4.20;99.90
39019;DHT22;24786;51.984;5.872;2022-12-08T11:53:34;4.20;99.90
39019;DHT22;24786;51.984;5.872;2022-12-08T11:56:14;4.20;99.90
39019;DHT22;24786;51.984;5.872;2022-12-08T11:58:44;4.10;99.90
39019;DHT22;24786;51.984;5.872;2022-12-08T12:01:29;4.10;99.90
39019;DHT22;24786;51.984;5.872;2022-12-08T12:12:26;4.10;99.90
39019;DHT22;24786;51.984;5.872;2022-12-08T12:20:53;4.10;99.90
39019;DHT22;24786;51.984;5.872;2022-12-08T12:23:40;4.10;99.90
39019;DHT22;24786;51.984;5.872;2022-12-08T12:26:15;4.10;99.90
39019;DHT22;24786;51.984;5.872;2022-12-08T12:31:12;4.10;99.90
39019;DHT22;24786;51.984;5.872;2022-12-08T12:33:41;4.00;99.90
39019;DHT22;24786;51.984;5.872;2022-12-08T12:36:08;4.00;99.90
39019;DHT22;24786;51.984;5.872;2022-12-08T12:38:36;4.00;99.90
39019;DHT22;24786;51.984;5.872;2022-12-08T12:42:05;4.00;99.90
39019;DHT22;24786;51.984;5.872;2022-12-08T12:54:44;4.20;99.90
39019;DHT22;24786;51.984;5.872;2022-12-08T13:00:26;4.20;99.90
39019;DHT22;24786;51.984;5.872;2022-12-08T13:02:36;4.20;99.90
39019;DHT22;24786;51.984;5.872;2022-12-08T13:07:47;4.30;99.90
39019;DHT22;24786;51.984;5.872;2022-12-08T13:10:35;4.20;99.90
39019;DHT22;24786;51.984;5.872;2022-12-08T13:13:03;4.20;99.90
39019;DHT22;24786;51.984;5.872;2022-12-08T13:18:19;4.20;99.90
39019;DHT22;24786;51.984;5.872;2022-12-08T13:20:49;4.10;99.90
39019;DHT22;24786;51.984;5.872;2022-12-08T13:24:13;4.20;99.90
39019;DHT22;24786;51.984;5.872;2022-12-08T13:26:23;4.10;99.90
39019;DHT22;24786;51.984;5.872;2022-12-08T13:31:46;4.00;99.90
39019;DHT22;24786;51.984;5.872;2022-12-08T13:34:18;4.00;99.90
39019;DHT22;24786;51.984;5.872;2022-12-08T13:42:35;4.00;99.90
39019;DHT22;24786;51.984;5.872;2022-12-08T13:45:16;4.00;99.90
39019;DHT22;24786;51.984;5.872;2022-12-08T13:51:19;3.90;99.90
39019;DHT22;24786;51.984;5.872;2022-12-08T13:54:23;3.80;99.90
39019;DHT22;24786;51.984;5.872;2022-12-08T13:56:50;3.80;99.90
39019;DHT22;24786;51.984;5.872;2022-12-08T14:01:47;3.80;99.90
39019;DHT22;24786;51.984;5.872;2022-12-08T14:04:18;3.80;99.90
39019;DHT22;24786;51.984;5.872;2022-12-08T14:06:47;3.80;99.90
39019;DHT22;24786;51.984;5.872;2022-12-08T14:09:20;3.80;99.90
39019;DHT22;24786;51.984;5.872;2022-12-08T14:12:00;3.80;99.90
39019;DHT22;24786;51.984;5.872;2022-12-08T14:14:31;3.80;99.90
39019;DHT22;24786;51.984;5.872;2022-12-08T14:17:01;3.80;99.90
39019;DHT22;24786;51.984;5.872;2022-12-08T14:19:29;3.80;99.90
39019;DHT22;24786;51.984;5.872;2022-12-08T14:21:58;3.80;99.90
39019;DHT22;24786;51.984;5.872;2022-12-08T14:24:29;3.90;99.90
39019;DHT22;24786;51.984;5.872;2022-12-08T14:27:06;3.70;99.90
39019;DHT22;24786;51.984;5.872;2022-12-08T14:31:57;3.70;99.90
39019;DHT22;24786;51.984;5.872;2022-12-08T14:34:23;3.70;99.90
39019;DHT22;24786;51.984;5.872;2022-12-08T14:36:49;3.70;99.90
39019;DHT22;24786;51.984;5.872;2022-12-08T14:39:16;3.70;99.90
39019;DHT22;24786;51.984;5.872;2022-12-08T14:42:00;3.70;99.90
39019;DHT22;24786;51.984;5.872;2022-12-08T14:44:29;3.70;99.90
39019;DHT22;24786;51.984;5.872;2022-12-08T14:47:07;3.60;99.90
39019;DHT22;24786;51.984;5.872;2022-12-08T14:49:36;3.60;99.90
39019;DHT22;24786;51.984;5.872;2022-12-08T14:52:10;3.60;99.90
39019;DHT22;24786;51.984;5.872;2022-12-08T14:54:40;3.60;99.90
39019;DHT22;24786;51.984;5.872;2022-12-08T14:57:10;3.50;99.90
39019;DHT22;24786;51.984;5.872;2022-12-08T14:59:38;3.50;99.90
39019;DHT22;24786;51.984;5.872;2022-12-08T15:05:04;3.50;99.90
39019;DHT22;24786;51.984;5.872;2022-12-08T15:07:59;3.50;99.90
39019;DHT22;24786;51.984;5.872;2022-12-08T15:10:27;3.50;99.90
39019;DHT22;24786;51.984;5.872;2022-12-08T15:15:22;3.50;99.90
39019;DHT22;24786;51.984;5.872;2022-12-08T15:18:13;3.50;99.90
39019;DHT22;24786;51.984;5.872;2022-12-08T15:20:43;3.60;99.90
39019;DHT22;24786;51.984;5.872;2022-12-08T15:23:29;3.50;99.90
39019;DHT22;24786;51.984;5.872;2022-12-08T15:25:56;3.60;99.90
39019;DHT22;24786;51.984;5.872;2022-12-08T15:28:24;3.60;99.90
39019;DHT22;24786;51.984;5.872;2022-12-08T15:30:51;3.70;99.90
39019;DHT22;24786;51.984;5.872;2022-12-08T15:33:17;3.70;99.90
39019;DHT22;24786;51.984;5.872;2022-12-08T15:35:43;3.60;99.90
39019;DHT22;24786;51.984;5.872;2022-12-08T15:38:35;3.60;99.90
39019;DHT22;24786;51.984;5.872;2022-12-08T15:41:03;3.50;99.90
39019;DHT22;24786;51.984;5.872;2022-12-08T15:43:30;3.40;99.90
39019;DHT22;24786;51.984;5.872;2022-12-08T15:45:56;3.40;99.90
39019;DHT22;24786;51.984;5.872;2022-12-08T15:48:27;3.30;99.90
39019;DHT22;24786;51.984;5.872;2022-12-08T15:50:53;3.20;99.90
39019;DHT22;24786;51.984;5.872;2022-12-08T15:53:19;3.20;99.90
39019;DHT22;24786;51.984;5.872;2022-12-08T15:55:45;3.10;99.90
39019;DHT22;24786;51.984;5.872;2022-12-08T15:58:24;3.00;99.90
39019;DHT22;24786;51.984;5.872;2022-12-08T16:00:51;3.10;99.90
39019;DHT22;24786;51.984;5.872;2022-12-08T16:03:24;3.00;99.90
39019;DHT22;24786;51.984;5.872;2022-12-08T16:05:51;3.00;99.90
39019;DHT22;24786;51.984;5.872;2022-12-08T16:08:17;3.00;99.90
39019;DHT22;24786;51.984;5.872;2022-12-08T16:10:44;3.00;99.90
39019;DHT22;24786;51.984;5.872;2022-12-08T16:13:17;3.00;99.90
39019;DHT22;24786;51.984;5.872;2022-12-08T16:16:04;3.10;99.90
39019;DHT22;24786;51.984;5.872;2022-12-08T16:18:34;3.10;99.90
39019;DHT22;24786;51.984;5.872;2022-12-08T16:21:01;3.10;99.90
39019;DHT22;24786;51.984;5.872;2022-12-08T16:23:27;3.20;99.90
39019;DHT22;24786;51.984;5.872;2022-12-08T16:25:53;3.20;99.90
39019;DHT22;24786;51.984;5.872;2022-12-08T16:28:19;3.20;99.90
39019;DHT22;24786;51.984;5.872;2022-12-08T16:30:45;3.20;99.90
39019;DHT22;24786;51.984;5.872;2022-12-08T16:33:11;3.30;99.90
39019;DHT22;24786;51.984;5.872;2022-12-08T16:35:37;3.30;99.90
39019;DHT22;24786;51.984;5.872;2022-12-08T16:38:03;3.30;99.90
39019;DHT22;24786;51.984;5.872;2022-12-08T16:40:28;3.30;99.90
39019;DHT22;24786;51.984;5.872;2022-12-08T16:42:54;3.30;99.90
39019;DHT22;24786;51.984;5.872;2022-12-08T16:45:23;3.30;99.90
39019;DHT22;24786;51.984;5.872;2022-12-08T16:47:51;3.20;99.90
39019;DHT22;24786;51.984;5.872;2022-12-08T16:50:25;3.20;99.90
39019;DHT22;24786;51.984;5.872;2022-12-08T16:52:57;3.10;99.90
39019;DHT22;24786;51.984;5.872;2022-12-08T16:55:23;3.10;99.90
39019;DHT22;24786;51.984;5.872;2022-12-08T16:57:48;3.00;99.90
39019;DHT22;24786;51.984;5.872;2022-12-08T17:00:17;3.10;99.90
39019;DHT22;24786;51.984;5.872;2022-12-08T17:02:43;2.90;99.90
39019;DHT22;24786;51.984;5.872;2022-12-08T17:05:11;2.90;99.90
39019;DHT22;24786;51.984;5.872;2022-12-08T17:07:40;2.80;99.90
39019;DHT22;24786;51.984;5.872;2022-12-08T17:10:07;2.80;99.90
39019;DHT22;24786;51.984;5.872;2022-12-08T17:12:32;2.70;99.90
39019;DHT22;24786;51.984;5.872;2022-12-08T17:15:02;2.80;99.90
39019;DHT22;24786;51.984;5.872;2022-12-08T17:17:27;2.80;99.90
39019;DHT22;24786;51.984;5.872;2022-12-08T17:19:53;2.80;99.90
39019;DHT22;24786;51.984;5.872;2022-12-08T17:22:18;2.90;99.90
39019;DHT22;24786;51.984;5.872;2022-12-08T17:24:44;2.90;99.90
39019;DHT22;24786;51.984;5.872;2022-12-08T17:27:10;2.90;99.90
39019;DHT22;24786;51.984;5.872;2022-12-08T17:29:35;3.00;99.90
39019;DHT22;24786;51.984;5.872;2022-12-08T17:32:01;3.10;99.90
39019;DHT22;24786;51.984;5.872;2022-12-08T17:34:27;3.10;99.90
39019;DHT22;24786;51.984;5.872;2022-12-08T17:36:52;3.10;99.90
39019;DHT22;24786;51.984;5.872;2022-12-08T17:39:18;3.10;99.90
39019;DHT22;24786;51.984;5.872;2022-12-08T17:41:44;3.10;99.90
39019;DHT22;24786;51.984;5.872;2022-12-08T17:44:17;3.20;99.90
39019;DHT22;24786;51.984;5.872;2022-12-08T17:46:43;3.20;99.90